createdAt,value
2022-08-07T00:02:40.416Z,101023.20
2022-08-07T00:05:04.222Z,101023.92
2022-08-07T00:07:40.437Z,101024.67
2022-08-07T00:10:26.920Z,101025.45
2022-08-07T00:13:00.794Z,101022.02
2022-08-07T00:15:38.060Z,101022.65
2022-08-07T00:18:19.779Z,101023.41
2022-08-07T00:20:53.594Z,101018.84
2022-08-07T00:23:22.517Z,101014.73
2022-08-07T00:25:58.160Z,101012.05
2022-08-07T00:28:33.254Z,101007.00
2022-08-07T00:31:06.144Z,101008.36
2022-08-07T00:33:41.009Z,101002.87
2022-08-07T00:36:10.157Z,101003.41
2022-08-07T00:38:39.276Z,101007.25
2022-08-07T00:41:09.821Z,101014.16
2022-08-07T00:44:02.061Z,101019.94
2022-08-07T00:46:25.950Z,101013.63
2022-08-07T00:48:53.681Z,101011.73
2022-08-07T00:51:22.090Z,101010.84
2022-08-07T00:53:50.593Z,101007.86
2022-08-07T00:56:23.397Z,101006.34
2022-08-07T00:58:58.305Z,101000.64
2022-08-07T01:01:26.551Z,101000.77
2022-08-07T01:04:00.225Z,101002.84
2022-08-07T01:06:29.384Z,100999.95
2022-08-07T01:09:00.696Z,100997.75
2022-08-07T01:12:27.805Z,100997.52
2022-08-07T01:14:18.002Z,100999.23
2022-08-07T01:16:50.585Z,100998.70
2022-08-07T01:19:22.264Z,101001.25
2022-08-07T01:21:55.317Z,101001.36
2022-08-07T01:24:28.974Z,101002.58
2022-08-07T01:27:01.842Z,101005.19
2022-08-07T01:29:31.318Z,101002.89
2022-08-07T01:32:05.427Z,101003.25
2022-08-07T01:34:34.798Z,101002.58
2022-08-07T01:37:10.788Z,101007.35
2022-08-07T01:39:46.475Z,101009.15
2022-08-07T01:42:37.726Z,101012.73
2022-08-07T01:45:09.649Z,101012.09
2022-08-07T01:48:29.897Z,101011.83
2022-08-07T01:50:35.559Z,101009.52
2022-08-07T01:53:08.649Z,101007.69
2022-08-07T01:55:43.859Z,101009.02
2022-08-07T01:58:27.195Z,101007.94
2022-08-07T02:01:09.673Z,101007.41
2022-08-07T02:03:57.640Z,101003.37
2022-08-07T02:06:32.515Z,101004.33
2022-08-07T02:09:08.942Z,101002.80
2022-08-07T02:12:03.527Z,101002.48
2022-08-07T02:14:40.996Z,101003.77
2022-08-07T02:17:27.535Z,101003.60
2022-08-07T02:20:04.874Z,100998.06
2022-08-07T02:22:41.165Z,100995.73
2022-08-07T02:25:17.083Z,100995.88
2022-08-07T02:27:55.303Z,100993.41
2022-08-07T02:30:24.144Z,100994.48
2022-08-07T02:33:00.493Z,100989.16
2022-08-07T02:36:29.775Z,100982.34
2022-08-07T02:38:33.107Z,100986.08
2022-08-07T02:41:04.275Z,100984.33
2022-08-07T02:43:39.935Z,100983.45
2022-08-07T02:46:10.898Z,100980.50
2022-08-07T02:48:39.993Z,100978.11
2022-08-07T02:51:42.685Z,100978.30
2022-08-07T02:54:10.330Z,100975.77
2022-08-07T02:56:43.641Z,100974.21
2022-08-07T02:59:18.001Z,100970.98
2022-08-07T03:01:55.352Z,100968.75
2022-08-07T03:04:25.310Z,100968.79
2022-08-07T03:06:54.729Z,100967.13
2022-08-07T03:09:43.182Z,100965.90
2022-08-07T03:12:22.034Z,100967.67
2022-08-07T03:15:02.197Z,100967.99
2022-08-07T03:17:36.275Z,100971.89
2022-08-07T03:20:21.689Z,100971.59
2022-08-07T03:22:52.316Z,100972.25
2022-08-07T03:25:23.134Z,100967.77
2022-08-07T03:27:59.167Z,100968.86
2022-08-07T03:30:30.607Z,100968.91
2022-08-07T03:33:01.439Z,100966.86
2022-08-07T03:35:43.748Z,100972.39
2022-08-07T03:38:21.043Z,100974.95
2022-08-07T03:40:53.850Z,100976.98
2022-08-07T03:43:32.474Z,100977.89
2022-08-07T03:46:02.815Z,100981.92
2022-08-07T03:48:33.082Z,100979.05
2022-08-07T03:51:01.906Z,100979.44
2022-08-07T03:54:02.068Z,100977.73
2022-08-07T03:56:34.294Z,100979.93
2022-08-07T03:59:12.675Z,100979.20
2022-08-07T04:01:46.281Z,100983.45
2022-08-07T04:04:18.321Z,100986.06
2022-08-07T04:06:51.028Z,100986.79
2022-08-07T04:09:23.498Z,100984.77
2022-08-07T04:12:24.267Z,100987.16
2022-08-07T04:14:45.887Z,100985.27
2022-08-07T04:17:21.154Z,100987.83
2022-08-07T04:19:55.319Z,100992.52
2022-08-07T04:22:28.628Z,100995.15
2022-08-07T04:25:01.042Z,100995.52
2022-08-07T04:27:35.452Z,100992.69
2022-08-07T04:30:35.935Z,100989.79
2022-08-07T04:33:08.882Z,100995.08
2022-08-07T04:35:38.739Z,100994.69
2022-08-07T04:38:13.116Z,100996.39
2022-08-07T04:40:51.867Z,101002.64
2022-08-07T04:44:12.389Z,101002.14
2022-08-07T04:46:34.570Z,101005.73
2022-08-07T04:49:18.330Z,101009.48
2022-08-07T04:52:02.692Z,101012.52
2022-08-07T04:54:35.680Z,101018.48
2022-08-07T04:58:10.608Z,101018.07
2022-08-07T05:00:18.857Z,101017.39
2022-08-07T05:03:31.221Z,101016.73
2022-08-07T05:06:00.133Z,101018.19
2022-08-07T05:08:59.023Z,101023.41
2022-08-07T05:11:57.364Z,101028.83
2022-08-07T05:14:55.987Z,101031.58
2022-08-07T05:17:51.805Z,101033.70
2022-08-07T05:20:10.912Z,101035.02
2022-08-07T05:22:41.267Z,101034.98
2022-08-07T05:25:25.501Z,101035.61
2022-08-07T05:28:20.639Z,101038.55
2022-08-07T05:30:52.985Z,101040.64
2022-08-07T05:33:22.378Z,101043.63
2022-08-07T05:35:52.691Z,101049.49
2022-08-07T05:38:58.121Z,101049.52
2022-08-07T05:41:15.731Z,101058.73
2022-08-07T05:44:08.381Z,101062.20
2022-08-07T05:46:42.872Z,101061.23
2022-08-07T05:49:13.125Z,101061.34
2022-08-07T05:51:46.573Z,101064.96
2022-08-07T05:54:30.292Z,101066.23
2022-08-07T05:57:02.602Z,101065.77
2022-08-07T05:59:39.067Z,101065.35
2022-08-07T06:02:30.594Z,101069.81
2022-08-07T06:05:05.140Z,101073.91
2022-08-07T06:08:13.050Z,101066.45
2022-08-07T06:10:25.107Z,101071.73
2022-08-07T06:12:54.586Z,101067.36
2022-08-07T06:15:39.418Z,101070.23
2022-08-07T06:18:14.129Z,101068.02
2022-08-07T06:20:50.496Z,101067.10
2022-08-07T06:24:38.584Z,101069.09
2022-08-07T06:26:20.667Z,101070.89
2022-08-07T06:28:50.470Z,101071.63
2022-08-07T06:31:21.280Z,101070.71
2022-08-07T06:34:06.566Z,101066.41
2022-08-07T06:36:36.323Z,101066.19
2022-08-07T06:40:12.929Z,101066.68
2022-08-07T06:42:03.576Z,101061.52
2022-08-07T06:44:56.122Z,101059.66
2022-08-07T06:47:27.941Z,101058.66
2022-08-07T06:50:09.009Z,101056.11
2022-08-07T06:52:47.395Z,101055.67
2022-08-07T06:55:32.146Z,101057.83
2022-08-07T06:58:16.676Z,101054.63
2022-08-07T07:00:57.505Z,101055.17
2022-08-07T07:03:39.735Z,101055.43
2022-08-07T07:06:13.658Z,101054.26
2022-08-07T07:08:51.951Z,101051.98
2022-08-07T07:12:09.681Z,101050.03
2022-08-07T07:14:09.920Z,101052.67
2022-08-07T07:16:50.113Z,101057.39
2022-08-07T07:19:55.502Z,101054.20
2022-08-07T07:22:33.798Z,101056.20
2022-08-07T07:26:31.135Z,101050.73
2022-08-07T07:28:03.402Z,101048.30
2022-08-07T07:30:41.497Z,101049.13
2022-08-07T07:33:13.692Z,101046.95
2022-08-07T07:36:05.001Z,101044.52
2022-08-07T07:38:34.967Z,101043.27
2022-08-07T07:41:08.716Z,101042.92
2022-08-07T07:43:47.869Z,101040.21
2022-08-07T07:46:36.511Z,101039.02
2022-08-07T07:50:35.338Z,101034.16
2022-08-07T07:52:15.803Z,101035.20
2022-08-07T07:54:50.584Z,101029.80
2022-08-07T07:57:51.816Z,101028.65
2022-08-07T08:00:14.993Z,101026.19
2022-08-07T08:03:05.597Z,101028.14
2022-08-07T08:05:42.717Z,101024.11
2022-08-07T08:08:35.262Z,101020.73
2022-08-07T08:11:07.992Z,101017.89
2022-08-07T08:13:54.052Z,101014.69
2022-08-07T08:18:36.431Z,101018.12
2022-08-07T08:20:15.682Z,101012.92
2022-08-07T08:22:32.905Z,101008.59
2022-08-07T08:25:41.922Z,101008.66
2022-08-07T08:28:16.952Z,101007.50
2022-08-07T08:31:05.557Z,101008.18
2022-08-07T08:33:33.722Z,101005.11
2022-08-07T08:36:04.920Z,101003.39
2022-08-07T08:38:40.577Z,100999.09
2022-08-07T08:41:16.871Z,100997.04
2022-08-07T08:43:59.123Z,100998.11
2022-08-07T08:46:40.935Z,101000.94
2022-08-07T08:49:33.208Z,100997.81
2022-08-07T08:52:19.845Z,100993.38
2022-08-07T08:54:58.792Z,100992.89
2022-08-07T08:57:34.572Z,100988.26
2022-08-07T09:00:06.340Z,100984.55
2022-08-07T09:02:46.208Z,100986.19
2022-08-07T09:05:36.729Z,100985.38
2022-08-07T09:08:31.507Z,100977.11
2022-08-07T09:11:24.226Z,100983.43
2022-08-07T09:14:12.702Z,100982.05
2022-08-07T09:17:00.022Z,100977.48
2022-08-07T09:19:55.460Z,100973.08
2022-08-07T09:24:33.192Z,100970.70
2022-08-07T09:25:55.663Z,100972.94
2022-08-07T09:30:03.181Z,100965.66
2022-08-07T09:31:33.607Z,100962.52
2022-08-07T09:34:16.239Z,100959.98
2022-08-07T09:36:55.628Z,100958.25
2022-08-07T09:39:54.900Z,100957.15
2022-08-07T09:42:45.582Z,100957.84
2022-08-07T09:47:23.985Z,100953.68
2022-08-07T09:48:30.025Z,100950.88
2022-08-07T09:52:09.700Z,100952.46
2022-08-07T09:54:22.556Z,100946.04
2022-08-07T09:57:36.667Z,100942.35
2022-08-07T10:00:08.928Z,100936.77
2022-08-07T10:04:03.830Z,100937.21
2022-08-07T10:06:31.351Z,100931.20
2022-08-07T10:09:34.244Z,100929.95
2022-08-07T10:12:34.481Z,100923.64
2022-08-07T10:15:44.325Z,100913.16
2022-08-07T10:18:36.144Z,100908.36
2022-08-07T10:21:50.338Z,100905.25
2022-08-07T10:24:33.356Z,100902.45
2022-08-07T10:27:46.563Z,100897.11
2022-08-07T10:30:18.824Z,100894.14
2022-08-07T10:33:15.038Z,100894.66
2022-08-07T10:36:17.863Z,100894.66
2022-08-07T10:39:05.716Z,100892.17
2022-08-07T10:41:47.226Z,100884.59
2022-08-07T10:44:38.633Z,100888.30
2022-08-07T10:47:27.251Z,100887.05
2022-08-07T10:50:15.253Z,100878.02
2022-08-07T10:52:55.036Z,100875.81
2022-08-07T10:55:38.085Z,100874.92
2022-08-07T10:58:31.946Z,100868.99
2022-08-07T11:01:22.364Z,100861.90
2022-08-07T11:04:16.730Z,100864.95
2022-08-07T11:07:24.645Z,100868.33
2022-08-07T11:10:08.576Z,100866.20
2022-08-07T11:12:45.695Z,100861.32
2022-08-07T11:15:26.310Z,100859.38
2022-08-07T11:18:04.443Z,100858.27
2022-08-07T11:20:46.774Z,100855.07
2022-08-07T11:23:30.391Z,100853.37
2022-08-07T11:26:12.960Z,100849.52
2022-08-07T11:28:51.329Z,100845.19
2022-08-07T11:31:33.314Z,100842.73
2022-08-07T11:34:16.595Z,100838.58
2022-08-07T11:36:56.485Z,100838.23
2022-08-07T11:40:01.006Z,100827.75
2022-08-07T11:42:47.295Z,100824.59
2022-08-07T11:45:35.387Z,100824.73
2022-08-07T11:49:27.828Z,100820.56
2022-08-07T11:51:50.138Z,100819.98
2022-08-07T11:54:38.237Z,100816.15
2022-08-07T11:57:16.159Z,100816.95
2022-08-07T12:00:10.777Z,100821.29
2022-08-07T12:03:02.536Z,100819.08
2022-08-07T12:05:48.993Z,100815.59
2022-08-07T12:08:31.754Z,100807.77
2022-08-07T12:11:21.479Z,100805.89
2022-08-07T12:13:54.549Z,100800.97
2022-08-07T12:16:30.684Z,100801.48
2022-08-07T12:19:12.492Z,100799.27
2022-08-07T12:22:36.720Z,100800.77
2022-08-07T12:25:07.769Z,100791.67
2022-08-07T12:28:08.667Z,100796.97
2022-08-07T12:30:38.394Z,100794.36
2022-08-07T12:33:18.958Z,100794.73
2022-08-07T12:35:58.180Z,100790.30
2022-08-07T12:38:36.739Z,100787.64
2022-08-07T12:41:09.856Z,100788.14
2022-08-07T12:44:02.068Z,100784.65
2022-08-07T12:46:43.133Z,100775.48
2022-08-07T12:49:39.479Z,100771.45
2022-08-07T12:52:17.859Z,100766.96
2022-08-07T12:55:05.705Z,100766.45
2022-08-07T12:58:00.298Z,100765.61
2022-08-07T13:00:49.534Z,100762.78
2022-08-07T13:03:55.035Z,100771.23
2022-08-07T13:06:54.424Z,100771.20
2022-08-07T13:10:38.009Z,100767.79
2022-08-07T13:12:56.698Z,100764.15
2022-08-07T13:15:36.693Z,100758.10
2022-08-07T13:18:26.539Z,100750.26
2022-08-07T13:21:07.089Z,100743.38
2022-08-07T13:24:01.409Z,100742.36
2022-08-07T13:26:40.024Z,100737.34
2022-08-07T13:29:16.585Z,100735.58
2022-08-07T13:31:57.476Z,100739.68
2022-08-07T13:34:44.717Z,100730.24
2022-08-07T13:37:23.133Z,100722.19
2022-08-07T13:40:34.885Z,100715.16
2022-08-07T13:42:58.570Z,100714.55
2022-08-07T13:46:10.797Z,100718.27
2022-08-07T13:48:27.893Z,100713.39
2022-08-07T13:51:28.310Z,100709.64
2022-08-07T13:53:59.687Z,100708.81
2022-08-07T13:56:34.999Z,100710.73
2022-08-07T13:59:12.290Z,100710.81
2022-08-07T14:01:51.331Z,100698.27
2022-08-07T14:04:29.665Z,100698.13
2022-08-07T14:07:09.792Z,100697.33
2022-08-07T14:10:02.432Z,100695.41
2022-08-07T14:12:42.001Z,100694.58
2022-08-07T14:15:36.033Z,100689.40
2022-08-07T14:18:24.214Z,100690.12
2022-08-07T14:21:08.458Z,100683.77
2022-08-07T14:24:00.885Z,100680.61
2022-08-07T14:26:39.193Z,100681.14
2022-08-07T14:30:06.590Z,100679.95
2022-08-07T14:32:07.535Z,100680.58
2022-08-07T14:34:45.482Z,100675.99
2022-08-07T14:37:17.783Z,100673.35
2022-08-07T14:40:19.725Z,100667.58
2022-08-07T14:43:00.779Z,100663.67
2022-08-07T14:45:46.859Z,100666.73
2022-08-07T14:48:20.529Z,100663.54
2022-08-07T14:50:51.126Z,100662.27
2022-08-07T14:54:08.590Z,100666.11
2022-08-07T14:56:13.081Z,100666.19
2022-08-07T14:58:44.498Z,100664.05
2022-08-07T15:04:06.051Z,100660.82
2022-08-07T15:06:36.511Z,100659.12
2022-08-07T15:09:58.953Z,100655.48
2022-08-07T15:12:05.040Z,100651.69
2022-08-07T15:14:56.038Z,100652.52
2022-08-07T15:17:31.910Z,100645.51
2022-08-07T15:20:33.627Z,100641.11
2022-08-07T15:22:55.955Z,100640.44
2022-08-07T15:28:33.174Z,100637.69
2022-08-07T15:31:10.282Z,100638.95
2022-08-07T15:33:42.703Z,100639.41
2022-08-07T15:36:11.950Z,100632.16
2022-08-07T15:38:51.697Z,100633.19
2022-08-07T15:44:23.706Z,100623.19
2022-08-07T15:46:58.207Z,100618.42
2022-08-07T15:50:05.069Z,100618.85
2022-08-07T15:52:30.538Z,100611.52
2022-08-07T15:55:03.868Z,100608.30
2022-08-07T15:57:47.615Z,100608.90
2022-08-07T16:00:31.897Z,100604.84
2022-08-07T16:03:22.072Z,100606.32
2022-08-07T16:06:01.642Z,100607.06
2022-08-07T16:08:38.237Z,100604.75
2022-08-07T16:11:27.266Z,100610.11
2022-08-07T16:14:05.444Z,100603.34
2022-08-07T16:16:49.421Z,100602.65
2022-08-07T16:19:41.878Z,100604.33
2022-08-07T16:22:38.517Z,100603.08
2022-08-07T16:25:54.892Z,100597.85
2022-08-07T16:30:09.271Z,100599.50
2022-08-07T16:31:50.919Z,100596.41
2022-08-07T16:34:32.569Z,100602.38
2022-08-07T16:38:09.264Z,100602.67
2022-08-07T16:40:56.912Z,100600.77
2022-08-07T16:44:05.940Z,100607.83
2022-08-07T16:47:05.550Z,100610.56
2022-08-07T16:50:35.949Z,100609.74
2022-08-07T16:54:02.872Z,100609.46
2022-08-07T16:56:50.135Z,100606.70
2022-08-07T16:59:47.101Z,100610.05
2022-08-07T17:03:05.975Z,100608.88
2022-08-07T17:06:18.815Z,100607.45
2022-08-07T17:09:04.339Z,100612.56
2022-08-07T17:12:05.196Z,100609.34
2022-08-07T17:14:32.431Z,100609.25
2022-08-07T17:17:06.202Z,100610.20
2022-08-07T17:20:02.789Z,100606.86
2022-08-07T17:22:37.648Z,100607.87
2022-08-07T17:25:15.080Z,100609.22
2022-08-07T17:28:02.112Z,100610.73
2022-08-07T17:30:57.564Z,100617.71
2022-08-07T17:34:18.242Z,100616.55
2022-08-07T17:36:26.095Z,100616.29
2022-08-07T17:39:02.840Z,100617.80
2022-08-07T17:42:03.665Z,100614.65
2022-08-07T17:44:46.902Z,100616.77
2022-08-07T17:47:38.524Z,100617.87
2022-08-07T17:50:19.375Z,100619.09
2022-08-07T17:52:58.917Z,100616.86
2022-08-07T17:55:55.064Z,100617.98
2022-08-07T17:58:35.521Z,100622.92
2022-08-07T18:01:21.099Z,100626.30
2022-08-07T18:04:07.950Z,100627.16
2022-08-07T18:07:19.502Z,100627.81
2022-08-07T18:10:06.555Z,100632.20
2022-08-07T18:12:48.842Z,100636.58
2022-08-07T18:15:32.763Z,100640.09
2022-08-07T18:18:46.316Z,100643.98
2022-08-07T18:21:37.089Z,100646.23
2022-08-07T18:24:07.379Z,100645.88
2022-08-07T18:27:08.682Z,100647.17
2022-08-07T18:30:05.653Z,100652.20
2022-08-07T18:33:10.905Z,100656.98
2022-08-07T18:35:55.595Z,100657.08
2022-08-07T18:38:54.851Z,100661.04
2022-08-07T18:41:45.737Z,100665.05
2022-08-07T18:45:40.202Z,100666.94
2022-08-07T18:47:44.594Z,100670.61
2022-08-07T18:50:46.589Z,100670.83
2022-08-07T18:53:36.674Z,100675.96
2022-08-07T18:56:19.678Z,100678.42
2022-08-07T18:59:48.058Z,100682.23
2022-08-07T19:02:36.628Z,100682.85
2022-08-07T19:05:22.950Z,100685.02
2022-08-07T19:08:04.014Z,100685.14
2022-08-07T19:10:49.410Z,100692.04
2022-08-07T19:13:28.842Z,100702.52
2022-08-07T19:17:04.638Z,100711.48
2022-08-07T19:18:59.997Z,100713.51
2022-08-07T19:21:47.640Z,100720.48
2022-08-07T19:24:36.896Z,100728.20
2022-08-07T19:28:29.492Z,100731.52
2022-08-07T19:31:01.704Z,100736.02
2022-08-07T19:33:12.891Z,100735.84
2022-08-07T19:35:43.804Z,100745.63
2022-08-07T19:38:15.808Z,100747.70
2022-08-07T19:40:50.699Z,100751.05
2022-08-07T19:43:43.709Z,100758.85
2022-08-07T19:46:14.796Z,100761.36
2022-08-07T19:48:53.456Z,100767.00
2022-08-07T19:51:53.318Z,100766.27
2022-08-07T19:54:34.268Z,100765.67
2022-08-07T19:58:02.754Z,100767.06
2022-08-07T19:59:58.670Z,100768.62
2022-08-07T20:02:33.948Z,100769.55
2022-08-07T20:05:07.840Z,100769.96
2022-08-07T20:07:47.219Z,100768.63
2022-08-07T20:10:36.615Z,100776.98
2022-08-07T20:13:23.448Z,100781.81
2022-08-07T20:15:57.776Z,100780.67
2022-08-07T20:18:32.340Z,100781.96
2022-08-07T20:21:21.235Z,100776.73
2022-08-07T20:23:57.904Z,100775.84
2022-08-07T20:26:44.904Z,100780.34
2022-08-07T20:29:48.061Z,100780.97
2022-08-07T20:32:25.202Z,100782.83
2022-08-07T20:34:58.095Z,100780.42
2022-08-07T20:37:36.861Z,100781.10
2022-08-07T20:40:32.061Z,100781.02
2022-08-07T20:43:14.512Z,100781.89
2022-08-07T20:46:25.698Z,100780.79
2022-08-07T20:49:53.901Z,100778.38
2022-08-07T20:51:35.901Z,100770.77
2022-08-07T20:54:08.661Z,100770.04
2022-08-07T20:56:41.853Z,100772.68
2022-08-07T21:00:04.767Z,100767.86
2022-08-07T21:02:30.846Z,100765.44
2022-08-07T21:05:04.613Z,100766.70
2022-08-07T21:07:39.414Z,100762.52
2022-08-07T21:10:13.118Z,100762.09
2022-08-07T21:12:45.827Z,100760.59
2022-08-07T21:15:18.658Z,100758.90
2022-08-07T21:18:06.173Z,100755.70
2022-08-07T21:20:39.513Z,100751.09
2022-08-07T21:23:49.483Z,100755.44
2022-08-07T21:26:39.739Z,100753.70
2022-08-07T21:29:18.049Z,100754.87
2022-08-07T21:32:47.179Z,100758.69
2022-08-07T21:34:51.259Z,100754.75
2022-08-07T21:37:23.687Z,100755.73
2022-08-07T21:39:59.372Z,100755.93
2022-08-07T21:42:42.802Z,100751.77
2022-08-07T21:46:09.100Z,100750.49
2022-08-07T21:48:29.157Z,100748.61
2022-08-07T21:51:19.595Z,100746.89
2022-08-07T21:53:54.879Z,100746.63
2022-08-07T21:56:46.991Z,100746.73
2022-08-07T22:00:03.139Z,100748.73
2022-08-07T22:02:26.888Z,100748.34
2022-08-07T22:04:58.884Z,100748.98
2022-08-07T22:07:31.885Z,100752.80
2022-08-07T22:10:21.678Z,100750.77
2022-08-07T22:12:57.125Z,100750.94
2022-08-07T22:16:42.549Z,100748.98
2022-08-07T22:18:42.834Z,100750.98
2022-08-07T22:21:21.478Z,100753.48
2022-08-07T22:23:56.656Z,100753.08
2022-08-07T22:26:30.791Z,100756.09
2022-08-07T22:29:08.960Z,100754.69
2022-08-07T22:32:03.492Z,100759.67
2022-08-07T22:34:53.419Z,100765.17
2022-08-07T22:38:03.717Z,100766.06
2022-08-07T22:40:35.700Z,100766.81
2022-08-07T22:43:12.106Z,100767.36
2022-08-07T22:46:21.184Z,100764.98
2022-08-07T22:49:02.418Z,100766.02
2022-08-07T22:51:55.117Z,100769.70
2022-08-07T22:55:17.443Z,100773.49
2022-08-07T22:58:04.121Z,100769.72
2022-08-07T23:00:43.213Z,100769.33
2022-08-07T23:03:57.636Z,100769.80
2022-08-07T23:06:42.289Z,100774.04
2022-08-07T23:10:04.611Z,100775.56
2022-08-07T23:12:36.853Z,100768.27
2022-08-07T23:15:12.316Z,100767.81
2022-08-07T23:18:13.549Z,100763.11
2022-08-07T23:20:55.164Z,100763.74
2022-08-07T23:24:06.588Z,100762.35
2022-08-07T23:26:25.510Z,100764.13
2022-08-07T23:30:35.588Z,100764.17
2022-08-07T23:34:19.830Z,100765.58
2022-08-07T23:35:18.910Z,100763.14
2022-08-07T23:38:36.473Z,100761.06
2022-08-07T23:41:24.491Z,100757.36
2022-08-07T23:44:08.981Z,100760.13
2022-08-07T23:46:57.097Z,100758.31
2022-08-07T23:49:51.611Z,100760.05
2022-08-07T23:53:00.394Z,100760.52
2022-08-07T23:55:47.109Z,100761.41
2022-08-07T23:58:24.215Z,100758.77
